createdAt,value
2023-05-09T00:04:41.172Z,18.00
2023-05-09T00:09:44.838Z,17.90
2023-05-09T00:14:47.083Z,17.80
2023-05-09T00:19:49.284Z,17.80
2023-05-09T00:24:53.647Z,17.60
2023-05-09T00:29:55.771Z,17.50
2023-05-09T00:34:58.202Z,17.40
2023-05-09T00:40:01.816Z,17.30
2023-05-09T00:45:04.418Z,17.20
2023-05-09T00:50:08.706Z,17.10
2023-05-09T00:55:13.459Z,17.00
2023-05-09T01:00:17.317Z,17.00
2023-05-09T01:05:20.356Z,16.90
2023-05-09T01:10:32.008Z,16.90
2023-05-09T01:15:39.827Z,16.80
2023-05-09T01:20:45.004Z,16.80
2023-05-09T01:26:02.119Z,16.70
2023-05-09T01:31:07.887Z,16.60
2023-05-09T01:36:15.262Z,16.50
2023-05-09T01:41:18.271Z,16.40
2023-05-09T01:46:22.975Z,16.40
2023-05-09T01:51:26.089Z,16.30
2023-05-09T01:56:29.101Z,16.30
2023-05-09T02:01:32.883Z,16.20
2023-05-09T02:06:36.359Z,16.10
2023-05-09T02:11:38.686Z,16.10
2023-05-09T02:16:42.486Z,16.00
2023-05-09T02:21:44.782Z,15.90
2023-05-09T02:26:47.117Z,15.90
2023-05-09T02:31:51.589Z,15.80
2023-05-09T02:36:53.872Z,15.80
2023-05-09T02:41:56.062Z,15.70
2023-05-09T02:46:59.647Z,15.70
2023-05-09T02:52:01.816Z,15.70
2023-05-09T02:57:04.284Z,15.60
2023-05-09T03:02:07.898Z,15.60
2023-05-09T03:07:10.255Z,15.50
2023-05-09T03:12:12.451Z,15.50
2023-05-09T03:17:15.998Z,15.40
2023-05-09T03:22:18.143Z,15.40
2023-05-09T03:27:20.317Z,15.40
2023-05-09T03:32:24.038Z,15.30
2023-05-09T03:37:27.166Z,15.30
2023-05-09T03:42:29.784Z,15.20
2023-05-09T03:47:33.373Z,15.20
2023-05-09T03:52:35.506Z,15.20
2023-05-09T03:57:37.886Z,15.10
2023-05-09T04:02:41.780Z,15.10
2023-05-09T04:07:44.327Z,15.10
2023-05-09T04:12:46.463Z,15.10
2023-05-09T04:17:50.221Z,15.10
2023-05-09T04:22:52.387Z,15.10
2023-05-09T04:27:54.756Z,15.20
2023-05-09T04:32:58.349Z,15.20
2023-05-09T04:38:00.500Z,15.30
2023-05-09T04:43:02.617Z,15.30
2023-05-09T04:48:06.819Z,15.30
2023-05-09T04:53:09.056Z,15.30
2023-05-09T04:58:11.308Z,15.30
2023-05-09T05:03:14.808Z,15.40
2023-05-09T05:08:17.034Z,15.40
2023-05-09T05:13:19.379Z,15.50
2023-05-09T05:18:23.087Z,15.60
2023-05-09T05:23:25.360Z,15.70
2023-05-09T05:28:27.565Z,15.80
2023-05-09T05:33:31.902Z,15.80
2023-05-09T05:38:34.046Z,15.90
2023-05-09T05:43:36.285Z,15.90
2023-05-09T05:48:39.966Z,15.90
2023-05-09T05:53:42.296Z,16.00
2023-05-09T05:58:44.493Z,16.10
2023-05-09T06:03:48.852Z,16.20
2023-05-09T06:08:51.099Z,16.30
2023-05-09T06:13:53.303Z,16.40
2023-05-09T06:18:57.093Z,16.50
2023-05-09T06:24:08.424Z,16.50
2023-05-09T06:29:16.787Z,16.60
2023-05-09T06:34:20.552Z,16.60
2023-05-09T06:39:22.764Z,16.70
2023-05-09T06:44:25.098Z,16.70
2023-05-09T06:49:28.674Z,16.80
2023-05-09T06:54:30.851Z,16.90
2023-05-09T06:59:33.078Z,17.00
2023-05-09T07:04:36.696Z,17.10
2023-05-09T07:09:38.952Z,17.30
2023-05-09T07:14:41.229Z,17.40
2023-05-09T07:19:44.872Z,17.60
2023-05-09T07:24:47.240Z,17.70
2023-05-09T07:29:49.560Z,17.80
2023-05-09T07:34:56.040Z,18.00
2023-05-09T07:40:25.213Z,18.50
2023-05-09T07:45:29.902Z,19.30
2023-05-09T07:50:34.272Z,20.10
2023-05-09T07:55:36.521Z,20.60
2023-05-09T08:00:38.952Z,20.90
2023-05-09T08:05:42.765Z,21.40
2023-05-09T08:10:45.206Z,21.80
2023-05-09T08:15:47.684Z,21.90
2023-05-09T08:20:51.496Z,22.00
2023-05-09T08:25:54.510Z,22.00
2023-05-09T08:30:56.948Z,22.10
2023-05-09T08:36:00.792Z,22.40
2023-05-09T08:41:03.146Z,22.80
2023-05-09T08:46:08.681Z,23.10
2023-05-09T08:51:12.757Z,23.30
2023-05-09T08:56:15.177Z,23.50
2023-05-09T09:01:18.492Z,23.60
2023-05-09T09:06:23.382Z,23.50
2023-05-09T09:11:25.814Z,23.50
2023-05-09T09:16:33.048Z,23.50
2023-05-09T09:21:37.526Z,23.40
2023-05-09T09:26:48.499Z,23.10
2023-05-09T09:31:54.594Z,22.80
2023-05-09T09:36:58.450Z,22.60
2023-05-09T09:42:12.626Z,22.30
2023-05-09T09:47:14.913Z,22.20
2023-05-09T09:52:25.011Z,22.20
2023-05-09T09:57:34.745Z,22.30
2023-05-09T10:02:47.382Z,22.60
2023-05-09T10:07:57.064Z,22.90
2023-05-09T10:13:02.356Z,23.00
2023-05-09T10:18:05.046Z,23.00
2023-05-09T10:23:09.447Z,23.00
2023-05-09T10:28:13.442Z,22.90
2023-05-09T10:33:20.911Z,22.90
2023-05-09T10:38:25.492Z,22.80
2023-05-09T10:43:28.550Z,22.90
2023-05-09T10:48:32.556Z,22.80
2023-05-09T10:53:46.853Z,22.80
2023-05-09T10:58:49.058Z,22.90
2023-05-09T11:03:56.227Z,22.90
2023-05-09T11:09:23.288Z,22.90
2023-05-09T11:14:43.320Z,22.90
2023-05-09T11:20:03.874Z,22.80
2023-05-09T11:25:10.021Z,22.80
2023-05-09T11:30:15.054Z,22.70
2023-05-09T11:35:18.938Z,22.70
2023-05-09T11:40:23.272Z,22.70
2023-05-09T11:45:27.588Z,22.70
2023-05-09T11:50:29.955Z,22.70
2023-05-09T11:55:37.928Z,22.70
2023-05-09T12:00:45.071Z,22.60
2023-05-09T12:05:49.186Z,22.50
2023-05-09T12:10:52.781Z,22.40
2023-05-09T12:16:01.620Z,22.40
2023-05-09T12:21:04.725Z,22.30
2023-05-09T12:26:08.483Z,22.30
2023-05-09T12:31:11.319Z,22.40
2023-05-09T12:36:13.943Z,22.60
2023-05-09T12:41:30.846Z,22.90
2023-05-09T12:46:37.806Z,23.10
2023-05-09T12:51:49.073Z,23.20
2023-05-09T12:56:54.017Z,23.10
2023-05-09T13:01:58.052Z,23.00
2023-05-09T13:07:00.592Z,22.90
2023-05-09T13:12:04.586Z,22.70
2023-05-09T13:17:06.946Z,22.60
2023-05-09T13:22:11.037Z,22.50
2023-05-09T13:27:15.798Z,22.50
2023-05-09T13:32:18.011Z,22.50
2023-05-09T13:37:20.430Z,22.40
2023-05-09T13:42:24.152Z,22.30
2023-05-09T13:47:26.653Z,22.00
2023-05-09T13:52:28.932Z,21.70
2023-05-09T13:57:32.560Z,21.40
2023-05-09T14:02:34.722Z,21.20
2023-05-09T14:07:36.983Z,21.20
2023-05-09T14:12:41.717Z,21.30
2023-05-09T14:17:44.257Z,21.40
2023-05-09T14:22:46.540Z,21.50
2023-05-09T14:27:50.281Z,21.60
2023-05-09T14:32:52.655Z,21.60
2023-05-09T14:37:54.907Z,21.60
2023-05-09T14:42:58.874Z,21.70
2023-05-09T14:48:01.524Z,21.70
2023-05-09T14:53:03.868Z,21.70
2023-05-09T14:58:07.524Z,21.70
2023-05-09T15:03:09.790Z,21.70
2023-05-09T15:08:11.971Z,21.70
2023-05-09T15:13:15.508Z,21.60
2023-05-09T15:18:17.795Z,21.30
2023-05-09T15:23:20.078Z,20.90
2023-05-09T15:28:23.735Z,20.50
2023-05-09T15:33:26.324Z,20.20
2023-05-09T15:38:28.510Z,20.10
2023-05-09T15:43:32.311Z,19.90
2023-05-09T15:48:34.779Z,19.80
2023-05-09T15:53:37.106Z,19.60
2023-05-09T15:58:41.317Z,19.50
2023-05-09T16:03:43.665Z,19.40
2023-05-09T16:08:45.996Z,19.10
2023-05-09T16:13:49.654Z,18.80
2023-05-09T16:18:51.802Z,18.50
2023-05-09T16:23:53.963Z,18.30
2023-05-09T16:28:57.674Z,18.20
2023-05-09T16:33:59.831Z,18.20
2023-05-09T16:39:02.102Z,18.20
2023-05-09T16:44:05.868Z,18.20
2023-05-09T16:49:07.995Z,18.20
2023-05-09T16:54:10.172Z,18.30
2023-05-09T16:59:13.736Z,18.40
2023-05-09T17:04:15.935Z,18.40
2023-05-09T17:09:19.120Z,18.40
2023-05-09T17:14:22.901Z,18.30
2023-05-09T17:19:25.090Z,18.30
2023-05-09T17:24:27.347Z,18.20
2023-05-09T17:29:30.928Z,18.10
2023-05-09T17:34:33.103Z,18.00
2023-05-09T17:39:38.072Z,17.90
2023-05-09T17:44:43.692Z,17.80
2023-05-09T17:49:46.602Z,17.80
2023-05-09T17:54:48.844Z,17.90
2023-05-09T17:59:52.729Z,18.10
2023-05-09T18:04:54.950Z,18.10
2023-05-09T18:09:57.162Z,18.10
2023-05-09T18:15:00.865Z,18.10
2023-05-09T18:20:08.420Z,18.10
2023-05-09T18:25:10.885Z,18.10
2023-05-09T18:30:15.087Z,18.10
2023-05-09T18:35:17.500Z,18.10
2023-05-09T18:40:19.831Z,18.00
2023-05-09T18:45:23.532Z,18.00
2023-05-09T18:50:25.701Z,18.00
2023-05-09T18:55:27.887Z,18.00
2023-05-09T19:00:31.580Z,18.00
2023-05-09T19:05:34.085Z,18.00
2023-05-09T19:10:36.209Z,17.90
2023-05-09T19:15:39.922Z,17.90
2023-05-09T19:20:42.068Z,17.80
2023-05-09T19:25:50.447Z,17.80
2023-05-09T19:30:55.278Z,17.60
2023-05-09T19:35:57.473Z,17.50
2023-05-09T19:41:00.564Z,17.40
2023-05-09T19:46:17.852Z,17.40
2023-05-09T19:51:20.053Z,17.40
2023-05-09T19:56:26.375Z,17.40
2023-05-09T20:01:30.238Z,17.40
2023-05-09T20:06:32.509Z,17.40
2023-05-09T20:11:34.693Z,17.40
2023-05-09T20:16:38.444Z,17.50
2023-05-09T20:21:41.595Z,17.50
2023-05-09T20:26:47.703Z,17.50
2023-05-09T20:31:52.821Z,17.60
2023-05-09T20:36:55.066Z,17.60
2023-05-09T20:41:58.114Z,17.60
2023-05-09T20:47:01.831Z,17.60
2023-05-09T20:52:13.847Z,17.60
2023-05-09T20:57:18.462Z,17.50
2023-05-09T21:02:22.189Z,17.40
2023-05-09T21:07:24.461Z,17.40
2023-05-09T21:12:26.629Z,17.30
2023-05-09T21:17:30.200Z,17.20
2023-05-09T21:22:32.327Z,17.20
2023-05-09T21:27:34.450Z,17.20
2023-05-09T21:32:38.121Z,17.10
2023-05-09T21:37:40.434Z,17.10
2023-05-09T21:42:43.437Z,17.20
2023-05-09T21:47:49.999Z,17.20
2023-05-09T21:52:52.230Z,17.20
2023-05-09T21:57:54.442Z,17.20
2023-05-09T22:02:58.836Z,17.30
2023-05-09T22:08:01.231Z,17.30
2023-05-09T22:13:03.359Z,17.30
2023-05-09T22:18:07.208Z,17.30
2023-05-09T22:23:09.458Z,17.30
2023-05-09T22:28:11.653Z,17.30
2023-05-09T22:33:15.341Z,17.30
2023-05-09T22:38:17.560Z,17.40
2023-05-09T22:43:19.746Z,17.40
2023-05-09T22:48:23.271Z,17.30
2023-05-09T22:53:25.407Z,17.30
2023-05-09T22:58:27.637Z,17.30
2023-05-09T23:03:31.214Z,17.20
2023-05-09T23:08:39.648Z,17.20
2023-05-09T23:13:41.933Z,17.20
2023-05-09T23:18:45.601Z,17.10
2023-05-09T23:23:47.845Z,17.10
2023-05-09T23:28:50.003Z,17.10
2023-05-09T23:33:55.104Z,17.10
2023-05-09T23:44:30.112Z,17.20
2023-05-09T23:55:33.719Z,17.20
